Time;durP1;ratioP1;P1;durP2;ratioP2;P2;SDS_P1;SDS_P2;PMS_P1;PMS_P2;Temp;Humidity;BMP_temperature;BMP_pressure;BME280_temperature;BME280_humidity;BME280_pressure;Samples;Min_cycle;Max_cycle;Signal;HPM_P1;HPM_P2
2023/07/22 00:00:51;;;;;;;1.83;1.20;;;;;;;18.50;73.25;98460.31;4143688;28;20217;-50
2023/07/22 00:02:53;;;;;;;1.65;1.27;;;;;;;18.51;73.48;98453.69;4127598;28;20206;-50
2023/07/22 00:04:55;;;;;;;1.58;1.48;;;;;;;18.45;73.39;98457.66;4103217;28;20230;-49
2023/07/22 00:06:56;;;;;;;1.20;1.08;;;;;;;18.40;73.09;98454.97;4127460;28;20214;-48
2023/07/22 00:08:59;;;;;;;1.20;1.10;;;;;;;18.33;72.99;98451.75;4128905;28;20304;-49
2023/07/22 00:11:01;;;;;;;1.33;1.23;;;;;;;18.33;72.69;98451.75;4127758;28;20222;-50
2023/07/22 00:13:03;;;;;;;1.00;0.98;;;;;;;18.32;72.57;98450.91;4118525;28;20707;-48
2023/07/22 00:15:06;;;;;;;1.40;1.10;;;;;;;18.34;72.55;98458.94;4120568;28;20226;-49
2023/07/22 00:17:08;;;;;;;2.55;1.00;;;;;;;18.29;72.91;98461.75;4127756;28;20304;-50
2023/07/22 00:19:10;;;;;;;1.60;1.50;;;;;;;18.27;72.97;98456.53;4132287;28;20238;-50
2023/07/22 00:21:12;;;;;;;1.42;1.20;;;;;;;18.23;73.07;98451.84;4131048;28;20979;-48
2023/07/22 00:23:15;;;;;;;1.20;1.10;;;;;;;18.21;72.87;98449.41;4128657;28;20210;-51
2023/07/22 00:25:16;;;;;;;3.72;1.63;;;;;;;18.31;72.89;98454.00;4129167;28;20210;-50
2023/07/22 00:27:18;;;;;;;1.95;1.40;;;;;;;18.25;73.11;98452.41;4130520;28;20262;-51
2023/07/22 00:29:20;;;;;;;3.15;1.42;;;;;;;18.21;73.49;98457.72;4128002;28;20237;-47
2023/07/22 00:31:22;;;;;;;2.15;1.50;;;;;;;18.19;73.39;98454.41;4111455;28;20214;-47
2023/07/22 00:33:24;;;;;;;2.90;1.48;;;;;;;18.16;73.28;98456.97;4143674;28;20225;-49
2023/07/22 00:35:26;;;;;;;5.15;1.02;;;;;;;18.13;73.84;98458.38;4119627;28;20219;-47
2023/07/22 00:37:27;;;;;;;1.20;1.10;;;;;;;18.11;74.09;98454.28;4102319;28;20207;-47
2023/07/22 00:39:29;;;;;;;2.15;1.60;;;;;;;18.09;74.08;98453.75;4116403;28;20601;-47
2023/07/22 00:41:31;;;;;;;5.47;1.17;;;;;;;18.11;74.09;98454.28;4127605;28;20303;-49
2023/07/22 00:43:33;;;;;;;2.08;1.40;;;;;;;18.14;74.38;98453.69;4113056;28;20720;-48
2023/07/22 00:45:35;;;;;;;1.75;1.40;;;;;;;18.16;74.63;98451.41;4112904;28;20693;-49
2023/07/22 00:47:37;;;;;;;1.83;1.50;;;;;;;18.16;74.40;98456.97;4123019;28;20272;-48
2023/07/22 00:49:39;;;;;;;1.63;1.38;;;;;;;18.06;74.82;98454.34;4132066;28;20237;-50
2023/07/22 00:51:41;;;;;;;2.20;1.67;;;;;;;18.07;74.54;98450.47;4128930;28;20213;-48
2023/07/22 00:53:42;;;;;;;2.42;1.30;;;;;;;18.14;74.25;98456.44;4121816;28;20322;-49
2023/07/22 00:55:45;;;;;;;1.75;1.65;;;;;;;18.15;74.10;98449.78;4126691;28;20258;-48
2023/07/22 00:57:47;;;;;;;2.78;1.50;;;;;;;18.12;74.26;98455.94;4128381;28;20218;-48
2023/07/22 00:59:49;;;;;;;2.10;1.60;;;;;;;18.13;73.81;98457.56;4118335;28;20649;-48
2023/07/22 01:01:51;;;;;;;5.93;1.73;;;;;;;17.72;75.18;98462.84;4131799;28;20718;-47
2023/07/22 01:03:52;;;;;;;4.93;1.98;;;;;;;17.54;75.70;98449.81;4128090;28;20245;-48
2023/07/22 01:05:54;;;;;;;2.55;1.30;;;;;;;17.62;75.46;98453.84;4127735;28;20263;-48
2023/07/22 01:07:59;;;;;;;5.63;1.60;;;;;;;17.71;75.16;98460.41;4111905;28;20202;-49
2023/07/22 01:10:00;;;;;;;1.40;1.30;;;;;;;17.80;75.09;98461.38;4125378;28;20225;-48
2023/07/22 01:12:03;;;;;;;2.65;1.48;;;;;;;17.88;75.23;98471.78;4117741;28;20215;-48
2023/07/22 01:14:04;;;;;;;2.55;1.52;;;;;;;17.93;75.20;98463.41;4143660;28;21915;-48
2023/07/22 01:16:06;;;;;;;2.55;1.50;;;;;;;17.89;75.74;98467.88;4143118;28;20205;-48
2023/07/22 01:18:08;;;;;;;2.42;1.20;;;;;;;17.89;76.00;98452.09;4128617;28;20213;-49
2023/07/22 01:20:11;;;;;;;2.20;1.52;;;;;;;17.97;76.37;98453.34;4126903;28;20214;-48
2023/07/22 01:22:13;;;;;;;3.80;1.25;;;;;;;17.85;78.70;98455.78;4128980;28;20212;-51
2023/07/22 01:24:16;;;;;;;3.50;1.90;;;;;;;17.70;79.85;98454.03;4128171;28;20221;-50
2023/07/22 01:26:19;;;;;;;2.00;1.75;;;;;;;17.71;80.07;98454.88;4127663;28;20222;-49
2023/07/22 01:28:21;;;;;;;1.55;1.45;;;;;;;17.75;80.11;98447.59;4132210;28;20213;-50
2023/07/22 01:30:22;;;;;;;1.88;1.20;;;;;;;17.68;81.48;98449.91;4129057;28;20206;-49
2023/07/22 01:32:24;;;;;;;2.78;2.53;;;;;;;17.71;81.70;98449.34;4127724;28;20599;-49
2023/07/22 01:34:26;;;;;;;1.88;1.77;;;;;;;17.74;82.08;98449.56;4127362;28;20640;-49
2023/07/22 01:36:28;;;;;;;1.95;1.85;;;;;;;17.56;84.70;98449.50;4127108;28;20256;-51
2023/07/22 01:38:31;;;;;;;1.75;1.65;;;;;;;17.61;84.99;98454.97;4111226;28;20230;-50
2023/07/22 01:40:32;;;;;;;2.13;1.67;;;;;;;17.18;88.37;98450.53;4126585;28;20217;-50
2023/07/22 01:42:34;;;;;;;1.92;1.70;;;;;;;16.95;90.58;98456.03;4127424;28;20260;-50
2023/07/22 01:44:36;;;;;;;3.20;1.73;;;;;;;17.00;90.43;98443.78;4127755;28;20206;-50
2023/07/22 01:46:38;;;;;;;3.50;1.85;;;;;;;16.75;93.00;98446.00;4126870;28;20296;-50
2023/07/22 01:48:40;;;;;;;1.92;1.77;;;;;;;16.70;94.12;98448.78;4130843;28;20226;-51
2023/07/22 01:50:41;;;;;;;2.75;1.85;;;;;;;16.50;95.11;98450.94;4132729;28;20206;-49
2023/07/22 01:52:43;;;;;;;3.28;1.92;;;;;;;16.65;93.78;98446.09;4127872;28;20217;-49
2023/07/22 01:54:45;;;;;;;1.83;1.73;;;;;;;16.72;93.54;98446.59;4132717;28;20224;-49
2023/07/22 01:56:46;;;;;;;2.33;1.63;;;;;;;16.52;94.65;98440.41;4110499;28;20218;-49
2023/07/22 01:58:49;;;;;;;2.22;1.60;;;;;;;16.69;93.76;98441.63;4128296;28;20230;-51
2023/07/22 02:00:50;;;;;;;2.20;1.75;;;;;;;16.50;94.36;98432.41;4143226;28;20695;-50
2023/07/22 02:02:52;;;;;;;2.10;1.58;;;;;;;16.65;93.44;98440.59;4127406;28;20205;-50
2023/07/22 02:04:54;;;;;;;1.58;1.48;;;;;;;16.60;94.43;98432.31;4126416;28;20201;-51
2023/07/22 02:06:56;;;;;;;2.90;1.75;;;;;;;16.64;94.63;98438.09;4125784;28;20309;-50
2023/07/22 02:08:58;;;;;;;1.80;1.70;;;;;;;16.50;96.27;98437.94;4126391;28;20232;-51
2023/07/22 02:11:04;;;;;;;2.83;2.22;;;;;;;16.48;96.59;98433.81;4126643;28;20214;-50
2023/07/22 02:13:06;;;;;;;1.85;1.75;;;;;;;16.24;97.75;98433.69;4124960;28;20297;-49
2023/07/22 02:15:08;;;;;;;2.05;1.73;;;;;;;16.41;96.90;98438.84;4122557;28;20229;-49
2023/07/22 02:17:10;;;;;;;1.70;1.60;;;;;;;16.43;96.83;98437.44;4125476;28;20256;-49
2023/07/22 02:19:12;;;;;;;2.42;1.60;;;;;;;16.62;95.68;98438.38;4121059;28;21010;-49
2023/07/22 02:21:13;;;;;;;1.70;1.60;;;;;;;16.64;95.83;98441.66;4127005;28;20225;-49
2023/07/22 02:23:16;;;;;;;1.75;1.50;;;;;;;16.61;95.20;98436.72;4122156;28;20206;-50
2023/07/22 02:25:17;;;;;;;2.80;1.77;;;;;;;16.69;95.17;98436.09;4125784;28;20568;-50
2023/07/22 02:27:19;;;;;;;3.20;1.60;;;;;;;16.82;93.97;98435.41;4125933;28;20668;-52
2023/07/22 02:29:21;;;;;;;1.98;1.83;;;;;;;16.93;93.20;98431.44;4125841;28;20962;-52
2023/07/22 02:31:23;;;;;;;2.15;1.70;;;;;;;16.97;92.90;98432.47;4126156;28;20206;-50
2023/07/22 02:33:24;;;;;;;3.03;1.65;;;;;;;16.99;92.71;98433.84;4125638;28;20301;-49
2023/07/22 02:35:26;;;;;;;1.77;1.67;;;;;;;17.03;93.08;98431.31;4130679;28;20298;-49
2023/07/22 02:37:28;;;;;;;1.65;1.55;;;;;;;17.00;92.73;98434.69;4128492;28;20664;-49
2023/07/22 02:39:30;;;;;;;1.92;1.33;;;;;;;17.05;92.54;98442.94;4112700;28;20234;-50
2023/07/22 02:41:31;;;;;;;2.78;1.40;;;;;;;17.07;92.04;98448.97;4121602;28;20216;-49
2023/07/22 02:43:37;;;;;;;1.92;1.25;;;;;;;17.18;91.77;98437.50;4115225;28;20701;-49
2023/07/22 02:45:39;;;;;;;1.65;1.55;;;;;;;17.18;91.90;98439.47;4131772;28;20774;-49
2023/07/22 02:47:41;;;;;;;1.77;1.60;;;;;;;17.17;91.45;98446.09;4125211;28;20209;-50
2023/07/22 02:49:42;;;;;;;1.52;1.42;;;;;;;17.19;91.58;98438.34;4125879;28;20226;-51
2023/07/22 02:51:44;;;;;;;2.10;1.70;;;;;;;17.17;91.53;98435.03;4125512;28;20313;-51
2023/07/22 02:53:49;;;;;;;2.83;1.80;;;;;;;17.15;91.84;98426.19;4126028;28;20214;-49
2023/07/22 02:55:51;;;;;;;2.95;1.58;;;;;;;17.12;91.82;98435.09;4106109;28;20625;-50
2023/07/22 02:57:52;;;;;;;1.88;1.38;;;;;;;17.03;92.73;98432.16;4126502;28;20213;-51
2023/07/22 02:59:55;;;;;;;2.05;1.52;;;;;;;17.01;92.83;98428.03;4132608;28;20225;-49
2023/07/22 03:01:57;;;;;;;1.80;1.70;;;;;;;17.06;92.58;98427.97;4140755;28;20841;-50
2023/07/22 03:03:59;;;;;;;3.13;1.60;;;;;;;17.04;92.52;98427.44;4126558;28;20752;-51
2023/07/22 03:06:01;;;;;;;1.60;1.50;;;;;;;17.02;92.53;98435.19;4110117;28;20681;-49
2023/07/22 03:08:03;;;;;;;2.22;1.73;;;;;;;17.02;92.44;98437.97;4125031;28;20260;-50
2023/07/22 03:10:06;;;;;;;2.25;1.45;;;;;;;17.05;92.55;98431.88;4119040;28;20221;-49
2023/07/22 03:12:08;;;;;;;2.38;1.67;;;;;;;17.15;92.82;98434.50;4126166;28;20221;-51
2023/07/22 03:14:10;;;;;;;2.75;1.58;;;;;;;17.14;92.95;98430.09;4126449;28;20999;-50
2023/07/22 03:16:11;;;;;;;3.58;1.70;;;;;;;17.07;92.67;98432.38;4140329;28;20225;-49
2023/07/22 03:18:13;;;;;;;1.92;1.70;;;;;;;17.08;92.46;98434.03;4109952;28;20746;-48
2023/07/22 03:20:16;;;;;;;2.40;2.05;;;;;;;17.03;92.66;98434.91;4142943;28;20573;-50
2023/07/22 03:22:18;;;;;;;2.03;1.83;;;;;;;16.99;92.94;98435.81;4129595;28;20241;-51
2023/07/22 03:24:20;;;;;;;2.40;1.98;;;;;;;17.05;93.23;98431.88;4132655;28;20571;-50
2023/07/22 03:26:22;;;;;;;1.55;1.42;;;;;;;17.02;93.19;98435.19;4129000;28;20322;-50
2023/07/22 03:28:25;;;;;;;1.95;1.75;;;;;;;16.98;93.49;98434.16;4129293;28;20230;-50
2023/07/22 03:30:27;;;;;;;3.10;1.90;;;;;;;16.94;93.70;98427.56;4134659;28;21677;-50
2023/07/22 03:32:29;;;;;;;1.67;1.50;;;;;;;16.92;93.78;98429.78;4114064;28;20669;-50
2023/07/22 03:34:31;;;;;;;4.03;2.28;;;;;;;16.96;94.14;98430.84;4130120;28;20308;-50
2023/07/22 03:36:35;;;;;;;2.67;1.75;;;;;;;16.88;94.12;98431.47;4126956;28;20210;-49
2023/07/22 03:38:37;;;;;;;1.52;1.42;;;;;;;16.86;94.16;98442.03;4131041;28;20291;-49
2023/07/22 03:40:39;;;;;;;1.73;1.63;;;;;;;16.91;94.07;98436.44;4128655;28;20257;-50
2023/07/22 03:42:41;;;;;;;2.50;1.60;;;;;;;16.95;94.64;98445.78;4118587;28;20669;-50
2023/07/22 03:44:42;;;;;;;2.53;2.22;;;;;;;16.95;94.63;98431.97;4131541;28;20857;-50
2023/07/22 03:46:44;;;;;;;2.00;1.80;;;;;;;16.84;94.64;98438.69;4128752;28;20210;-49
2023/07/22 03:48:46;;;;;;;1.63;1.40;;;;;;;16.94;94.36;98433.09;4129654;28;20226;-49
2023/07/22 03:50:48;;;;;;;3.20;1.88;;;;;;;16.41;96.84;98436.91;4126816;28;20214;-49
2023/07/22 03:52:54;;;;;;;2.17;1.98;;;;;;;16.65;95.91;98440.59;4130011;28;20214;-49
2023/07/22 03:54:56;;;;;;;2.25;2.05;;;;;;;16.73;95.85;98437.19;4129671;28;20739;-49
2023/07/22 03:56:58;;;;;;;2.58;2.38;;;;;;;16.41;97.43;98434.16;4128512;28;20210;-49
2023/07/22 03:59:00;;;;;;;2.03;1.88;;;;;;;16.53;97.14;98440.13;4131969;28;20230;-51
2023/07/22 04:01:01;;;;;;;2.42;2.22;;;;;;;16.54;97.11;98444.53;4132187;28;20596;-51
2023/07/22 04:03:03;;;;;;;2.83;2.30;;;;;;;16.61;96.39;98442.25;4128018;28;20296;-50
2023/07/22 04:05:05;;;;;;;2.40;2.20;;;;;;;16.68;96.56;98437.22;4144634;28;20233;-49
2023/07/22 04:07:08;;;;;;;2.50;1.92;;;;;;;16.66;97.26;98436.69;4121231;28;20218;-50
2023/07/22 04:09:09;;;;;;;3.42;3.13;;;;;;;16.47;98.00;98443.22;4127281;28;20236;-52
2023/07/22 04:11:11;;;;;;;2.53;2.00;;;;;;;16.56;97.44;98442.31;4127593;28;20300;-50
2023/07/22 04:13:13;;;;;;;3.05;2.05;;;;;;;16.52;97.29;98441.25;4131818;28;20218;-49
2023/07/22 04:15:17;;;;;;;3.60;2.67;;;;;;;16.57;97.19;98443.94;4128565;28;20249;-50
2023/07/22 04:17:18;;;;;;;7.50;2.22;;;;;;;16.46;98.15;98445.16;4129659;28;20209;-50
2023/07/22 04:19:21;;;;;;;2.83;2.08;;;;;;;16.44;97.89;98444.63;4130035;28;20275;-52
2023/07/22 04:21:22;;;;;;;2.53;2.33;;;;;;;16.23;99.45;98443.09;4131718;28;20222;-51
2023/07/22 04:23:25;;;;;;;2.40;2.20;;;;;;;16.14;99.64;98444.84;4127661;28;21004;-50
2023/07/22 04:25:26;;;;;;;2.53;2.33;;;;;;;16.03;100.00;98448.78;4128252;28;21028;-50
2023/07/22 04:27:28;;;;;;;2.25;2.00;;;;;;;16.25;99.38;98445.59;4120847;28;20297;-50
2023/07/22 04:29:31;;;;;;;2.75;2.40;;;;;;;16.21;99.59;98445.34;4129352;28;20252;-49
2023/07/22 04:31:33;;;;;;;4.10;2.08;;;;;;;16.11;100.00;98450.09;4129817;28;20737;-49
2023/07/22 04:33:35;;;;;;;3.28;2.47;;;;;;;16.00;100.00;98448.53;4130101;28;20213;-50
2023/07/22 04:35:42;;;;;;;2.38;1.88;;;;;;;16.01;100.00;98447.41;4114450;28;20234;-49
2023/07/22 04:37:44;;;;;;;3.03;2.53;;;;;;;16.03;100.00;98440.50;4144704;28;20204;-49
2023/07/22 04:39:49;;;;;;;2.75;2.38;;;;;;;15.90;100.00;98454.13;4128542;28;20307;-49
2023/07/22 04:41:51;;;;;;;3.88;2.20;;;;;;;16.03;100.00;98450.72;4128387;28;20690;-49
2023/07/22 04:43:53;;;;;;;2.55;2.35;;;;;;;16.01;100.00;98451.00;4132187;28;20233;-50
2023/07/22 04:45:55;;;;;;;4.03;2.40;;;;;;;16.08;100.00;98456.19;4131171;28;20276;-48
2023/07/22 04:47:57;;;;;;;4.03;2.65;;;;;;;16.14;100.00;98453.13;4127879;28;20210;-48
2023/07/22 04:49:59;;;;;;;2.55;2.17;;;;;;;16.18;100.00;98456.13;4127342;28;20268;-50
2023/07/22 04:52:01;;;;;;;3.97;1.90;;;;;;;16.24;100.00;98461.31;4111367;28;20233;-49
2023/07/22 04:54:03;;;;;;;2.55;2.33;;;;;;;16.30;100.00;98454.63;4134908;28;20987;-51
2023/07/22 04:56:05;;;;;;;2.30;2.08;;;;;;;16.40;99.48;98453.78;4129199;28;20296;-52
2023/07/22 04:58:08;;;;;;;2.25;2.05;;;;;;;16.52;99.03;98455.06;4119661;28;20213;-49
2023/07/22 05:00:11;;;;;;;2.10;1.95;;;;;;;16.52;98.50;98460.59;4130360;28;20225;-49
2023/07/22 05:02:13;;;;;;;2.40;2.13;;;;;;;16.52;98.38;98468.88;4127956;28;20260;-49
2023/07/22 05:04:15;;;;;;;2.20;2.00;;;;;;;16.58;98.45;98466.88;4112088;28;20215;-52
2023/07/22 05:06:16;;;;;;;2.50;2.30;;;;;;;16.61;98.52;98463.53;4128723;28;20232;-50
2023/07/22 05:08:18;;;;;;;2.22;2.03;;;;;;;16.67;98.58;98468.75;4127585;28;20218;-52
2023/07/22 05:10:20;;;;;;;2.35;2.13;;;;;;;16.60;98.78;98459.13;4126873;28;20221;-49
2023/07/22 05:12:22;;;;;;;2.25;2.10;;;;;;;16.64;98.57;98465.72;4126733;28;20265;-49
2023/07/22 05:14:24;;;;;;;2.30;2.08;;;;;;;16.66;98.42;98463.50;4127720;28;20214;-51
2023/07/22 05:16:25;;;;;;;2.58;2.10;;;;;;;16.69;98.27;98466.50;4128740;28;20758;-49
2023/07/22 05:18:28;;;;;;;2.45;2.20;;;;;;;16.79;98.28;98469.19;4127315;28;20237;-50
2023/07/22 05:20:29;;;;;;;2.88;2.55;;;;;;;16.78;98.16;98467.53;4127759;28;21031;-50
2023/07/22 05:22:31;;;;;;;2.42;2.22;;;;;;;16.77;98.06;98459.53;4127509;28;20269;-52
2023/07/22 05:24:36;;;;;;;3.88;2.83;;;;;;;16.80;97.79;98465.28;4141913;28;20796;-50
2023/07/22 05:26:38;;;;;;;2.63;1.90;;;;;;;16.82;97.40;98462.25;4127617;28;20218;-49
2023/07/22 05:28:39;;;;;;;2.42;2.20;;;;;;;16.80;97.64;98465.28;4127953;28;20774;-51
2023/07/22 05:30:41;;;;;;;2.22;2.10;;;;;;;16.84;97.08;98462.78;4117815;28;20799;-49
2023/07/22 05:32:43;;;;;;;2.55;2.20;;;;;;;16.89;97.00;98463.53;4144582;28;20197;-50
2023/07/22 05:34:45;;;;;;;1.85;1.75;;;;;;;16.96;97.06;98469.53;4120117;28;20615;-49
2023/07/22 05:36:46;;;;;;;2.53;2.28;;;;;;;16.95;97.41;98472.63;4128513;28;20206;-49
2023/07/22 05:38:48;;;;;;;2.72;2.47;;;;;;;17.04;97.58;98471.66;4127550;28;20246;-49
2023/07/22 05:40:52;;;;;;;2.38;2.25;;;;;;;16.91;98.27;98466.03;4144141;28;20206;-50
2023/07/22 05:42:54;;;;;;;3.72;2.35;;;;;;;16.41;99.56;98472.81;4142226;28;20220;-50
2023/07/22 05:44:57;;;;;;;2.42;2.22;;;;;;;16.50;99.93;98470.28;4127316;28;20687;-50
2023/07/22 05:46:59;;;;;;;3.97;2.85;;;;;;;16.52;99.21;98474.41;4142271;28;20259;-47
2023/07/22 05:49:01;;;;;;;4.00;3.38;;;;;;;16.18;100.00;98473.53;4126753;28;20663;-46
2023/07/22 05:51:02;;;;;;;3.13;2.83;;;;;;;16.17;100.00;98471.06;4132271;28;20216;-47
2023/07/22 05:53:04;;;;;;;3.17;2.63;;;;;;;16.36;100.00;98475.59;4127101;28;20222;-49
2023/07/22 05:55:06;;;;;;;5.95;2.65;;;;;;;16.41;100.00;98480.28;4125952;28;20281;-48
2023/07/22 05:57:08;;;;;;;5.07;2.60;;;;;;;16.32;100.00;98491.09;4134784;28;20940;-47
2023/07/22 05:59:10;;;;;;;2.72;2.53;;;;;;;16.50;100.00;98476.59;4111963;28;20235;-47
2023/07/22 06:01:12;;;;;;;2.85;2.50;;;;;;;16.61;99.11;98480.94;4129067;28;20214;-47
2023/07/22 06:03:14;;;;;;;4.47;2.70;;;;;;;16.67;99.17;98477.03;4127204;28;20218;-50
2023/07/22 06:05:16;;;;;;;2.78;2.58;;;;;;;16.70;99.44;98481.97;4124522;28;20216;-49
2023/07/22 06:07:18;;;;;;;3.45;2.20;;;;;;;16.73;98.25;98481.41;4128568;28;20672;-49
2023/07/22 06:09:20;;;;;;;3.03;2.17;;;;;;;16.82;97.11;98482.41;4126123;28;20238;-49
2023/07/22 06:11:22;;;;;;;4.38;2.80;;;;;;;16.75;97.78;98476.38;4114455;28;20680;-51
2023/07/22 06:13:24;;;;;;;4.53;3.15;;;;;;;16.98;96.50;98483.91;4129657;28;20210;-51
2023/07/22 06:15:25;;;;;;;3.17;2.75;;;;;;;16.77;97.87;98482.44;4141690;28;20247;-49
2023/07/22 06:17:27;;;;;;;2.53;2.15;;;;;;;16.77;97.73;98481.63;4130703;28;20216;-50
2023/07/22 06:19:29;;;;;;;3.25;2.55;;;;;;;16.62;97.55;98490.06;4123824;28;20640;-49
2023/07/22 06:21:31;;;;;;;3.53;3.03;;;;;;;16.93;97.60;98486.72;4123832;28;20210;-49
2023/07/22 06:23:35;;;;;;;2.30;2.20;;;;;;;17.20;95.04;98481.47;4127862;28;20209;-48
2023/07/22 06:25:37;;;;;;;2.95;2.75;;;;;;;17.19;94.54;98491.69;4109965;28;20216;-49
2023/07/22 06:27:38;;;;;;;2.85;2.55;;;;;;;17.15;93.15;98489.81;4126131;28;20265;-49
2023/07/22 06:29:40;;;;;;;4.72;2.72;;;;;;;17.32;93.56;98490.19;4126291;28;20230;-51
2023/07/22 06:31:42;;;;;;;3.63;3.33;;;;;;;17.23;91.53;98487.22;4124934;28;20297;-49
2023/07/22 06:33:44;;;;;;;3.30;3.00;;;;;;;17.28;91.34;98486.34;4125975;28;20296;-48
2023/07/22 06:35:46;;;;;;;2.45;2.30;;;;;;;17.24;91.69;98482.50;4142318;28;20221;-49
2023/07/22 06:37:52;;;;;;;3.00;2.72;;;;;;;17.35;91.70;98495.13;4126513;28;20210;-49
2023/07/22 06:39:53;;;;;;;2.97;2.50;;;;;;;17.41;90.99;98488.44;4126405;28;20230;-49
2023/07/22 06:41:55;;;;;;;2.33;2.13;;;;;;;17.53;89.65;98489.66;4142234;28;20575;-49
2023/07/22 06:43:57;;;;;;;3.03;2.53;;;;;;;17.66;89.76;98490.91;4122034;28;20256;-51
2023/07/22 06:45:59;;;;;;;3.03;2.75;;;;;;;17.86;89.96;98496.19;4129402;28;20271;-50
2023/07/22 06:48:01;;;;;;;3.05;2.10;;;;;;;18.16;89.37;98498.50;4125719;28;20212;-49
2023/07/22 06:50:06;;;;;;;2.97;2.42;;;;;;;18.25;87.61;98499.50;4125128;28;20736;-50
2023/07/22 06:52:08;;;;;;;2.97;2.15;;;;;;;18.08;88.32;98494.47;4130673;28;20268;-48
2023/07/22 06:54:10;;;;;;;5.15;2.53;;;;;;;18.32;87.05;98494.44;4126804;28;20280;-49
2023/07/22 06:56:11;;;;;;;2.08;1.90;;;;;;;18.21;87.19;98499.28;4144632;28;20229;-51
2023/07/22 06:58:13;;;;;;;1.50;1.40;;;;;;;18.44;87.02;98490.06;4122019;28;20300;-51
2023/07/22 07:00:15;;;;;;;2.42;2.22;;;;;;;18.56;87.30;98495.16;4126807;28;20217;-49
2023/07/22 07:02:20;;;;;;;1.73;1.52;;;;;;;18.60;85.25;98496.19;4144966;28;20241;-50
2023/07/22 07:04:21;;;;;;;2.40;2.20;;;;;;;18.75;84.56;98493.16;4130327;28;20244;-51
2023/07/22 07:06:23;;;;;;;2.25;1.92;;;;;;;18.59;83.96;98495.38;4129972;28;20626;-49
2023/07/22 07:08:25;;;;;;;3.35;1.80;;;;;;;18.73;84.73;98489.88;4133496;28;20229;-50
2023/07/22 07:10:27;;;;;;;2.00;1.80;;;;;;;18.81;82.74;98495.56;4129240;28;20210;-49
2023/07/22 07:12:28;;;;;;;2.30;1.75;;;;;;;18.97;83.57;98490.59;4144078;28;20220;-50
2023/07/22 07:14:30;;;;;;;2.17;1.88;;;;;;;18.92;81.33;98487.88;4129649;28;20214;-49
2023/07/22 07:16:33;;;;;;;2.50;2.00;;;;;;;19.07;81.39;98495.94;4127669;28;20234;-49
2023/07/22 07:18:35;;;;;;;4.43;2.13;;;;;;;19.15;80.62;98498.00;4129684;28;20225;-49
2023/07/22 07:20:37;;;;;;;2.13;1.58;;;;;;;18.93;78.47;98486.75;4122752;28;20272;-49
2023/07/22 07:22:39;;;;;;;2.40;2.20;;;;;;;18.99;79.18;98488.31;4128620;28;20284;-50
2023/07/22 07:24:41;;;;;;;2.03;1.70;;;;;;;19.13;78.08;98494.72;4130301;28;20727;-50
2023/07/22 07:26:43;;;;;;;1.60;1.50;;;;;;;19.18;78.55;98498.22;4129198;28;20213;-51
2023/07/22 07:28:47;;;;;;;2.38;1.77;;;;;;;19.13;77.66;98503.03;4128468;28;20233;-49
2023/07/22 07:30:50;;;;;;;4.00;2.22;;;;;;;19.33;78.66;98502.69;4122398;28;20738;-50
2023/07/22 07:32:52;;;;;;;1.80;1.70;;;;;;;19.25;78.39;98500.63;4125093;28;20266;-50
2023/07/22 07:34:53;;;;;;;2.00;1.60;;;;;;;19.36;78.40;98502.91;4129537;28;20245;-50
2023/07/22 07:36:55;;;;;;;3.35;1.90;;;;;;;19.60;77.35;98499.94;4128382;28;20234;-50
2023/07/22 07:38:57;;;;;;;2.92;1.60;;;;;;;19.90;75.16;98499.31;4143553;28;20295;-50
2023/07/22 07:41:01;;;;;;;3.58;1.75;;;;;;;20.15;75.76;98496.81;4129577;28;20322;-51
2023/07/22 07:43:02;;;;;;;1.55;1.45;;;;;;;20.33;71.91;98503.34;4128983;28;20608;-49
2023/07/22 07:45:05;;;;;;;3.22;1.88;;;;;;;20.31;71.86;98494.50;4113268;28;20210;-50
2023/07/22 07:47:06;;;;;;;3.30;1.90;;;;;;;20.24;71.85;98499.69;4130323;28;20218;-51
2023/07/22 07:49:08;;;;;;;5.05;2.15;;;;;;;20.27;70.83;98505.44;4145042;28;20757;-48
2023/07/22 07:51:12;;;;;;;2.42;1.88;;;;;;;20.50;70.59;98507.09;4131199;28;20241;-50
2023/07/22 07:53:14;;;;;;;3.17;2.42;;;;;;;20.75;70.75;98508.44;4143671;28;20212;-50
2023/07/22 07:55:15;;;;;;;2.30;1.83;;;;;;;20.83;68.24;98496.53;4122580;28;20236;-50
2023/07/22 07:57:17;;;;;;;3.65;2.15;;;;;;;21.09;68.23;98505.91;4110841;28;20218;-49
2023/07/22 07:59:19;;;;;;;2.17;1.80;;;;;;;21.26;67.66;98506.03;4128148;28;20844;-50
2023/07/22 08:01:21;;;;;;;2.88;2.35;;;;;;;21.25;65.98;98504.41;4128162;28;20687;-50
2023/07/22 08:03:23;;;;;;;3.42;1.83;;;;;;;21.42;66.13;98504.47;4131250;28;20205;-49
2023/07/22 08:05:25;;;;;;;6.60;3.35;;;;;;;21.39;65.24;98499.56;4129220;28;20248;-49
2023/07/22 08:07:27;;;;;;;3.25;2.17;;;;;;;21.16;65.43;98500.72;4115009;28;20296;-51
2023/07/22 08:09:29;;;;;;;2.75;2.47;;;;;;;21.02;66.32;98499.97;4128203;28;20639;-49
2023/07/22 08:11:30;;;;;;;2.75;1.75;;;;;;;20.92;66.49;98501.06;4118709;28;20567;-52
2023/07/22 08:13:33;;;;;;;2.20;2.00;;;;;;;20.68;68.37;98508.06;4127317;28;20213;-50
2023/07/22 08:15:35;;;;;;;3.80;1.77;;;;;;;20.79;68.10;98507.47;4112865;28;20234;-49
2023/07/22 08:17:37;;;;;;;1.77;1.63;;;;;;;20.56;68.49;98507.78;4128129;28;20256;-49
2023/07/22 08:19:39;;;;;;;3.70;2.38;;;;;;;20.87;69.25;98504.00;4129921;28;20236;-49
2023/07/22 08:21:41;;;;;;;2.10;1.90;;;;;;;20.94;67.46;98514.66;4124854;28;20212;-50
2023/07/22 08:23:45;;;;;;;1.85;1.75;;;;;;;20.78;68.11;98511.41;4122623;28;20962;-49
2023/07/22 08:25:48;;;;;;;2.00;1.80;;;;;;;20.76;68.29;98513.69;4125584;28;20212;-49
2023/07/22 08:27:49;;;;;;;2.92;2.42;;;;;;;20.78;68.64;98511.41;4125955;28;20265;-50
2023/07/22 08:29:51;;;;;;;13.80;2.05;;;;;;;20.62;69.57;98512.09;4125652;28;20250;-50
2023/07/22 08:31:53;;;;;;;2.03;1.73;;;;;;;20.80;68.31;98511.94;4125671;28;20205;-49
2023/07/22 08:33:55;;;;;;;4.30;1.88;;;;;;;21.21;68.31;98503.38;4128271;28;20213;-50
2023/07/22 08:35:57;;;;;;;5.25;2.60;;;;;;;21.27;69.23;98510.47;4127846;28;20222;-49
2023/07/22 08:37:58;;;;;;;2.83;1.70;;;;;;;21.57;64.81;98495.72;4128068;28;20217;-50
2023/07/22 08:40:00;;;;;;;2.70;1.88;;;;;;;21.56;64.29;98510.75;4127467;28;20234;-50
2023/07/22 08:42:04;;;;;;;3.58;2.08;;;;;;;21.82;63.15;98503.34;4142142;28;20213;-49
2023/07/22 08:44:06;;;;;;;11.82;2.30;;;;;;;21.84;61.51;98501.88;4126352;28;20245;-49
2023/07/22 08:46:09;;;;;;;1.98;1.83;;;;;;;22.49;60.86;98513.03;4110055;28;20217;-50
2023/07/22 08:48:12;;;;;;;7.18;2.35;;;;;;;22.76;59.54;98501.56;4110237;28;20205;-50
2023/07/22 08:50:18;;;;;;;2.95;1.90;;;;;;;23.14;58.71;98502.47;4125232;28;20205;-49
2023/07/22 08:52:19;;;;;;;2.25;1.48;;;;;;;22.86;58.28;98504.00;4108108;28;20202;-49
2023/07/22 08:54:21;;;;;;;3.20;1.83;;;;;;;22.87;58.84;98509.28;4138489;28;20201;-49
2023/07/22 08:56:25;;;;;;;2.42;2.03;;;;;;;23.17;58.16;98508.25;4123882;28;20252;-50
2023/07/22 08:58:28;;;;;;;3.33;2.05;;;;;;;23.03;57.01;98499.22;4125516;28;20239;-52
2023/07/22 09:00:31;;;;;;;3.25;2.45;;;;;;;23.50;58.69;98505.72;4142186;28;20213;-50
2023/07/22 09:02:36;;;;;;;2.33;1.90;;;;;;;23.48;55.92;98502.41;4124109;28;20209;-51
2023/07/22 09:04:38;;;;;;;2.63;1.65;;;;;;;23.39;53.85;98504.41;4124670;28;20213;-49
2023/07/22 09:06:41;;;;;;;7.32;2.00;;;;;;;23.37;56.20;98496.38;4143690;28;20215;-51
2023/07/22 09:08:44;;;;;;;5.65;1.70;;;;;;;23.15;53.98;98502.16;4126396;28;20248;-50
2023/07/22 09:10:46;;;;;;;4.63;2.58;;;;;;;22.75;53.67;98499.91;4127905;28;20551;-49
2023/07/22 09:12:48;;;;;;;5.05;1.83;;;;;;;23.20;53.35;98499.22;4122454;28;20281;-48
2023/07/22 09:14:50;;;;;;;2.70;1.80;;;;;;;22.71;53.66;98484.97;4127406;28;20217;-49
2023/07/22 09:16:52;;;;;;;2.53;1.52;;;;;;;22.93;54.46;98485.63;4128322;28;20750;-48
2023/07/22 09:18:58;;;;;;;2.83;1.88;;;;;;;23.63;53.54;98488.72;4119920;28;20234;-51
2023/07/22 09:21:00;;;;;;;1.92;1.70;;;;;;;23.39;51.80;98476.50;4125422;28;20284;-49
2023/07/22 09:23:02;;;;;;;4.32;1.88;;;;;;;23.75;52.58;98486.03;4127466;28;20210;-49
2023/07/22 09:25:25;;;;;;;4.68;1.33;;;;;;;23.90;51.77;98481.88;4139204;28;20228;-49
2023/07/22 09:27:36;;;;;;;1.67;1.58;;;;;;;24.22;50.57;98484.81;4141998;28;20204;-51
2023/07/22 09:29:40;;;;;;;1.80;1.63;;;;;;;24.56;50.30;98493.81;4120068;28;20917;-50
2023/07/22 09:31:50;;;;;;;2.00;1.80;;;;;;;24.61;49.96;98496.38;4125710;28;20692;-50
2023/07/22 09:33:55;;;;;;;4.95;1.80;;;;;;;24.76;50.43;98501.38;4142709;28;20205;-49